sensor_id;sensor_type;location;lat;lon;timestamp;pressure;altitude;pressure_sealevel;temperature;humidity
34241;BME280;20503;50.200;19.508;2023-05-03T00:01:50;102202.70;;;11.51;100.00
34241;BME280;20503;50.200;19.508;2023-05-03T00:06:58;102191.89;;;11.57;100.00
34241;BME280;20503;50.200;19.508;2023-05-03T00:12:05;102193.43;;;11.52;100.00
34241;BME280;20503;50.200;19.508;2023-05-03T00:17:13;102191.89;;;11.57;100.00
34241;BME280;20503;50.200;19.508;2023-05-03T00:22:21;102190.52;;;11.53;100.00
34241;BME280;20503;50.200;19.508;2023-05-03T00:27:28;102184.88;;;11.55;100.00
34241;BME280;20503;50.200;19.508;2023-05-03T00:32:36;102181.07;;;11.64;100.00
34241;BME280;20503;50.200;19.508;2023-05-03T00:37:43;102184.67;;;11.64;100.00
34241;BME280;20503;50.200;19.508;2023-05-03T00:42:51;102187.62;;;11.55;100.00
34241;BME280;20503;50.200;19.508;2023-05-03T00:47:59;102188.31;;;11.57;100.00
34241;BME280;20503;50.200;19.508;2023-05-03T00:53:06;102188.92;;;11.67;100.00
34241;BME280;20503;50.200;19.508;2023-05-03T00:58:14;102197.66;;;11.70;100.00
34241;BME280;20503;50.200;19.508;2023-05-03T01:03:22;102196.82;;;11.70;100.00
34241;BME280;20503;50.200;19.508;2023-05-03T01:08:37;102190.16;;;11.64;100.00
34241;BME280;20503;50.200;19.508;2023-05-03T01:13:52;102189.79;;;11.67;100.00
34241;BME280;20503;50.200;19.508;2023-05-03T01:18:55;102194.23;;;11.68;100.00
34241;BME280;20503;50.200;19.508;2023-05-03T01:24:12;102185.38;;;11.58;100.00
34241;BME280;20503;50.200;19.508;2023-05-03T01:29:17;102189.49;;;11.54;100.00
34241;BME280;20503;50.200;19.508;2023-05-03T01:39:37;102189.41;;;11.40;100.00
34241;BME280;20503;50.200;19.508;2023-05-03T01:44:42;102190.25;;;11.40;100.00
34241;BME280;20503;50.200;19.508;2023-05-03T01:49:44;102190.66;;;11.29;100.00
34241;BME280;20503;50.200;19.508;2023-05-03T01:54:45;102194.70;;;11.41;100.00
34241;BME280;20503;50.200;19.508;2023-05-03T01:59:48;102197.08;;;11.44;100.00
34241;BME280;20503;50.200;19.508;2023-05-03T02:04:56;102200.38;;;11.40;100.00
34241;BME280;20503;50.200;19.508;2023-05-03T02:10:05;102195.42;;;11.35;100.00
34241;BME280;20503;50.200;19.508;2023-05-03T02:15:12;102202.89;;;11.49;100.00
34241;BME280;20503;50.200;19.508;2023-05-03T02:20:21;102194.84;;;11.56;100.00
34241;BME280;20503;50.200;19.508;2023-05-03T02:25:27;102196.41;;;11.42;100.00
34241;BME280;20503;50.200;19.508;2023-05-03T02:30:34;102195.73;;;11.40;100.00
34241;BME280;20503;50.200;19.508;2023-05-03T02:35:42;102201.19;;;11.48;100.00
34241;BME280;20503;50.200;19.508;2023-05-03T02:40:51;102203.20;;;11.54;100.00
34241;BME280;20503;50.200;19.508;2023-05-03T02:45:58;102200.75;;;11.37;100.00
34241;BME280;20503;50.200;19.508;2023-05-03T02:51:06;102195.59;;;11.34;100.00
34241;BME280;20503;50.200;19.508;2023-05-03T02:56:14;102199.73;;;11.30;100.00
34241;BME280;20503;50.200;19.508;2023-05-03T03:01:22;102216.16;;;11.38;100.00
34241;BME280;20503;50.200;19.508;2023-05-03T03:06:30;102212.53;;;11.45;100.00
34241;BME280;20503;50.200;19.508;2023-05-03T03:11:38;102216.16;;;11.38;100.00
34241;BME280;20503;50.200;19.508;2023-05-03T03:16:46;102213.05;;;11.41;100.00
34241;BME280;20503;50.200;19.508;2023-05-03T03:21:55;102215.13;;;11.39;100.00
34241;BME280;20503;50.200;19.508;2023-05-03T03:27:01;102215.34;;;11.29;100.00
34241;BME280;20503;50.200;19.508;2023-05-03T03:32:10;102216.99;;;11.38;100.00
34241;BME280;20503;50.200;19.508;2023-05-03T03:37:18;102218.17;;;11.44;100.00
34241;BME280;20503;50.200;19.508;2023-05-03T03:42:25;102222.27;;;11.48;100.00
34241;BME280;20503;50.200;19.508;2023-05-03T03:47:33;102227.58;;;11.49;100.00
34241;BME280;20503;50.200;19.508;2023-05-03T03:52:41;102224.99;;;11.48;100.00
34241;BME280;20503;50.200;19.508;2023-05-03T03:57:49;102227.44;;;11.43;100.00
34241;BME280;20503;50.200;19.508;2023-05-03T04:02:57;102233.42;;;11.46;100.00
34241;BME280;20503;50.200;19.508;2023-05-03T04:08:05;102237.20;;;11.45;100.00
34241;BME280;20503;50.200;19.508;2023-05-03T04:13:12;102238.77;;;11.40;100.00
34241;BME280;20503;50.200;19.508;2023-05-03T04:18:20;102248.19;;;11.37;100.00
34241;BME280;20503;50.200;19.508;2023-05-03T04:23:28;102245.45;;;11.37;100.00
34241;BME280;20503;50.200;19.508;2023-05-03T04:28:36;102254.18;;;11.41;100.00
34241;BME280;20503;50.200;19.508;2023-05-03T04:33:44;102254.18;;;11.41;100.00
34241;BME280;20503;50.200;19.508;2023-05-03T04:38:51;102260.86;;;11.38;100.00
34241;BME280;20503;50.200;19.508;2023-05-03T04:44:00;102261.90;;;11.37;100.00
34241;BME280;20503;50.200;19.508;2023-05-03T04:49:07;102265.14;;;11.41;100.00
34241;BME280;20503;50.200;19.508;2023-05-03T04:54:15;102267.55;;;11.36;100.00
34241;BME280;20503;50.200;19.508;2023-05-03T04:59:23;102269.14;;;11.30;100.00
34241;BME280;20503;50.200;19.508;2023-05-03T05:04:31;102277.89;;;11.18;100.00
34241;BME280;20503;50.200;19.508;2023-05-03T05:09:40;102285.83;;;10.97;100.00
34241;BME280;20503;50.200;19.508;2023-05-03T05:14:47;102293.02;;;10.98;100.00
34241;BME280;20503;50.200;19.508;2023-05-03T05:19:55;102291.66;;;10.94;100.00
34241;BME280;20503;50.200;19.508;2023-05-03T05:25:04;102291.52;;;10.80;100.00
34241;BME280;20503;50.200;19.508;2023-05-03T05:30:11;102296.80;;;10.81;100.00
34241;BME280;20503;50.200;19.508;2023-05-03T05:35:19;102298.84;;;10.95;100.00
34241;BME280;20503;50.200;19.508;2023-05-03T05:40:26;102303.78;;;11.08;100.00
34241;BME280;20503;50.200;19.508;2023-05-03T05:45:34;102300.88;;;11.09;100.00
34241;BME280;20503;50.200;19.508;2023-05-03T05:50:42;102305.36;;;10.94;100.00
34241;BME280;20503;50.200;19.508;2023-05-03T06:01:08;102310.16;;;10.68;100.00
34241;BME280;20503;50.200;19.508;2023-05-03T06:06:10;102328.84;;;10.81;100.00
34241;BME280;20503;50.200;19.508;2023-05-03T06:11:12;102345.08;;;10.98;100.00
34241;BME280;20503;50.200;19.508;2023-05-03T06:16:20;102349.90;;;11.04;100.00
34241;BME280;20503;50.200;19.508;2023-05-03T06:21:27;102345.38;;;11.19;100.00
34241;BME280;20503;50.200;19.508;2023-05-03T06:26:35;102353.77;;;11.33;100.00
34241;BME280;20503;50.200;19.508;2023-05-03T06:31:42;102366.44;;;11.34;100.00
34241;BME280;20503;50.200;19.508;2023-05-03T06:36:50;102362.67;;;11.27;100.00
34241;BME280;20503;50.200;19.508;2023-05-03T06:41:57;102366.28;;;11.28;100.00
34241;BME280;20503;50.200;19.508;2023-05-03T06:47:05;102375.04;;;11.16;100.00
34241;BME280;20503;50.200;19.508;2023-05-03T06:52:12;102371.44;;;11.15;100.00
34241;BME280;20503;50.200;19.508;2023-05-03T06:57:19;102378.12;;;11.20;100.00
34241;BME280;20503;50.200;19.508;2023-05-03T07:02:28;102378.22;;;11.51;100.00
34241;BME280;20503;50.200;19.508;2023-05-03T07:07:35;102381.09;;;11.73;100.00
34241;BME280;20503;50.200;19.508;2023-05-03T07:12:43;102380.72;;;11.84;100.00
34241;BME280;20503;50.200;19.508;2023-05-03T07:17:50;102385.76;;;11.65;100.00
34241;BME280;20503;50.200;19.508;2023-05-03T07:22:57;102383.63;;;11.83;100.00
34241;BME280;20503;50.200;19.508;2023-05-03T07:28:05;102384.97;;;11.95;100.00
34241;BME280;20503;50.200;19.508;2023-05-03T07:33:12;102396.05;;;11.71;100.00
34241;BME280;20503;50.200;19.508;2023-05-03T07:38:20;102398.95;;;11.69;100.00
34241;BME280;20503;50.200;19.508;2023-05-03T07:43:29;102395.73;;;11.58;100.00
34241;BME280;20503;50.200;19.508;2023-05-03T07:48:35;102404.28;;;11.63;100.00
34241;BME280;20503;50.200;19.508;2023-05-03T07:53:43;102399.26;;;11.82;100.00
34241;BME280;20503;50.200;19.508;2023-05-03T07:58:51;102400.55;;;12.02;100.00
34241;BME280;20503;50.200;19.508;2023-05-03T08:03:58;102411.57;;;11.86;100.00
34241;BME280;20503;50.200;19.508;2023-05-03T08:09:06;102410.02;;;11.92;100.00
34241;BME280;20503;50.200;19.508;2023-05-03T08:14:14;102411.70;;;12.01;100.00
34241;BME280;20503;50.200;19.508;2023-05-03T08:19:21;102417.27;;;11.77;100.00
34241;BME280;20503;50.200;19.508;2023-05-03T08:24:29;102420.27;;;11.98;100.00
34241;BME280;20503;50.200;19.508;2023-05-03T08:29:37;102420.51;;;12.27;100.00
34241;BME280;20503;50.200;19.508;2023-05-03T08:34:44;102427.89;;;12.57;100.00
34241;BME280;20503;50.200;19.508;2023-05-03T08:39:52;102428.05;;;12.86;100.00
34241;BME280;20503;50.200;19.508;2023-05-03T08:45:00;102428.26;;;12.54;100.00
34241;BME280;20503;50.200;19.508;2023-05-03T08:50:09;102432.92;;;12.76;100.00
34241;BME280;20503;50.200;19.508;2023-05-03T08:55:16;102437.00;;;12.80;100.00
34241;BME280;20503;50.200;19.508;2023-05-03T09:00:27;102442.37;;;13.04;100.00
34241;BME280;20503;50.200;19.508;2023-05-03T09:05:33;102436.34;;;13.45;100.00
34241;BME280;20503;50.200;19.508;2023-05-03T09:10:41;102446.55;;;13.36;100.00
34241;BME280;20503;50.200;19.508;2023-05-03T09:15:55;102444.80;;;12.99;100.00
34241;BME280;20503;50.200;19.508;2023-05-03T09:20:57;102432.63;;;12.93;100.00
34241;BME280;20503;50.200;19.508;2023-05-03T09:26:03;102434.96;;;13.04;100.00
34241;BME280;20503;50.200;19.508;2023-05-03T09:31:11;102453.54;;;13.24;100.00
34241;BME280;20503;50.200;19.508;2023-05-03T09:36:19;102454.45;;;13.39;100.00
34241;BME280;20503;50.200;19.508;2023-05-03T09:41:31;102454.87;;;13.28;100.00
34241;BME280;20503;50.200;19.508;2023-05-03T09:46:35;102457.91;;;12.89;100.00
34241;BME280;20503;50.200;19.508;2023-05-03T09:51:44;102456.46;;;13.23;100.00
34241;BME280;20503;50.200;19.508;2023-05-03T09:56:53;102452.00;;;13.22;100.00
34241;BME280;20503;50.200;19.508;2023-05-03T10:02:05;102459.20;;;13.01;100.00
34241;BME280;20503;50.200;19.508;2023-05-03T10:07:12;102458.55;;;12.99;100.00
34241;BME280;20503;50.200;19.508;2023-05-03T10:12:16;102454.84;;;12.61;100.00
34241;BME280;20503;50.200;19.508;2023-05-03T10:17:29;102460.64;;;12.36;100.00
34241;BME280;20503;50.200;19.508;2023-05-03T10:27:50;102456.29;;;12.41;100.00
34241;BME280;20503;50.200;19.508;2023-05-03T10:32:52;102456.23;;;12.19;100.00
34241;BME280;20503;50.200;19.508;2023-05-03T10:37:56;102459.40;;;12.38;100.00
34241;BME280;20503;50.200;19.508;2023-05-03T10:43:04;102460.35;;;12.53;100.00
34241;BME280;20503;50.200;19.508;2023-05-03T10:48:16;102453.80;;;12.62;100.00
34241;BME280;20503;50.200;19.508;2023-05-03T10:53:33;102459.83;;;12.58;100.00
34241;BME280;20503;50.200;19.508;2023-05-03T10:58:37;102451.95;;;12.55;100.00
34241;BME280;20503;50.200;19.508;2023-05-03T11:08:57;102453.66;;;12.56;100.00
34241;BME280;20503;50.200;19.508;2023-05-03T11:14:00;102460.11;;;12.71;100.00
34241;BME280;20503;50.200;19.508;2023-05-03T11:19:02;102456.55;;;12.93;100.00
34241;BME280;20503;50.200;19.508;2023-05-03T11:24:08;102465.53;;;12.79;100.00
34241;BME280;20503;50.200;19.508;2023-05-03T11:29:15;102465.95;;;12.98;100.00
34241;BME280;20503;50.200;19.508;2023-05-03T11:34:24;102466.34;;;12.87;100.00
34241;BME280;20503;50.200;19.508;2023-05-03T11:39:31;102467.42;;;13.09;100.00
34241;BME280;20503;50.200;19.508;2023-05-03T11:44:39;102470.57;;;13.42;100.00
34241;BME280;20503;50.200;19.508;2023-05-03T11:49:52;102473.23;;;13.50;100.00
34241;BME280;20503;50.200;19.508;2023-05-03T11:54:55;102462.33;;;13.57;100.00
34241;BME280;20503;50.200;19.508;2023-05-03T12:00:12;102460.84;;;13.54;100.00
34241;BME280;20503;50.200;19.508;2023-05-03T12:05:17;102452.64;;;13.46;100.00
34241;BME280;20503;50.200;19.508;2023-05-03T12:10:19;102456.66;;;13.73;100.00
34241;BME280;20503;50.200;19.508;2023-05-03T12:15:34;102455.99;;;13.56;100.00
34241;BME280;20503;50.200;19.508;2023-05-03T12:20:38;102449.98;;;13.16;100.00
34241;BME280;20503;50.200;19.508;2023-05-03T12:25:42;102463.28;;;12.82;100.00
34241;BME280;20503;50.200;19.508;2023-05-03T12:30:51;102465.39;;;12.72;100.00
34241;BME280;20503;50.200;19.508;2023-05-03T12:35:58;102462.07;;;12.54;100.00
34241;BME280;20503;50.200;19.508;2023-05-03T12:41:06;102457.25;;;12.18;100.00
34241;BME280;20503;50.200;19.508;2023-05-03T12:46:14;102461.40;;;12.14;100.00
34241;BME280;20503;50.200;19.508;2023-05-03T12:51:22;102453.63;;;11.79;100.00
34241;BME280;20503;50.200;19.508;2023-05-03T12:56:29;102452.27;;;11.75;100.00
34241;BME280;20503;50.200;19.508;2023-05-03T13:01:38;102459.14;;;11.55;100.00
34241;BME280;20503;50.200;19.508;2023-05-03T13:06:46;102466.70;;;11.61;100.00
34241;BME280;20503;50.200;19.508;2023-05-03T13:11:54;102455.02;;;11.75;100.00
34241;BME280;20503;50.200;19.508;2023-05-03T13:17:01;102447.81;;;11.74;100.00
34241;BME280;20503;50.200;19.508;2023-05-03T13:22:10;102444.05;;;11.75;100.00
34241;BME280;20503;50.200;19.508;2023-05-03T13:27:16;102445.42;;;11.71;100.00
34241;BME280;20503;50.200;19.508;2023-05-03T13:32:23;102445.70;;;11.84;100.00
34241;BME280;20503;50.200;19.508;2023-05-03T13:37:32;102440.66;;;12.11;100.00
34241;BME280;20503;50.200;19.508;2023-05-03T13:42:39;102436.55;;;12.07;100.00
34241;BME280;20503;50.200;19.508;2023-05-03T13:47:46;102438.09;;;12.10;100.00
34241;BME280;20503;50.200;19.508;2023-05-03T13:52:55;102438.98;;;12.41;100.00
34241;BME280;20503;50.200;19.508;2023-05-03T13:58:02;102432.36;;;12.58;100.00
34241;BME280;20503;50.200;19.508;2023-05-03T14:03:11;102433.24;;;13.25;100.00
34241;BME280;20503;50.200;19.508;2023-05-03T14:08:19;102421.80;;;13.36;100.00
34241;BME280;20503;50.200;19.508;2023-05-03T14:13:28;102425.30;;;12.86;100.00
34241;BME280;20503;50.200;19.508;2023-05-03T14:18:35;102425.60;;;13.35;100.00
34241;BME280;20503;50.200;19.508;2023-05-03T14:23:44;102428.03;;;13.30;100.00
34241;BME280;20503;50.200;19.508;2023-05-03T14:28:51;102428.84;;;13.16;100.00
34241;BME280;20503;50.200;19.508;2023-05-03T14:34:00;102440.88;;;13.15;100.00
34241;BME280;20503;50.200;19.508;2023-05-03T14:39:09;102432.05;;;13.06;100.00
34241;BME280;20503;50.200;19.508;2023-05-03T14:44:15;102435.12;;;12.80;100.00
34241;BME280;20503;50.200;19.508;2023-05-03T14:49:24;102434.89;;;12.90;100.00
34241;BME280;20503;50.200;19.508;2023-05-03T14:54:32;102434.01;;;12.89;100.00
34241;BME280;20503;50.200;19.508;2023-05-03T14:59:39;102435.98;;;12.81;100.00
34241;BME280;20503;50.200;19.508;2023-05-03T15:04:47;102440.71;;;12.95;100.00
34241;BME280;20503;50.200;19.508;2023-05-03T15:09:55;102441.80;;;12.86;100.00
34241;BME280;20503;50.200;19.508;2023-05-03T15:15:03;102447.29;;;12.86;100.00
34241;BME280;20503;50.200;19.508;2023-05-03T15:20:12;102444.83;;;12.68;100.00
34241;BME280;20503;50.200;19.508;2023-05-03T15:25:18;102445.12;;;12.73;100.00
34241;BME280;20503;50.200;19.508;2023-05-03T15:30:26;102438.41;;;12.76;100.00
34241;BME280;20503;50.200;19.508;2023-05-03T15:35:38;102442.03;;;12.46;100.00
34241;BME280;20503;50.200;19.508;2023-05-03T15:40:43;102435.85;;;12.44;100.00
34241;BME280;20503;50.200;19.508;2023-05-03T15:45:50;102443.14;;;12.59;100.00
34241;BME280;20503;50.200;19.508;2023-05-03T15:50:58;102429.73;;;12.64;100.00
34241;BME280;20503;50.200;19.508;2023-05-03T15:56:05;102434.59;;;12.54;100.00
34241;BME280;20503;50.200;19.508;2023-05-03T16:01:12;102434.59;;;12.54;100.00
34241;BME280;20503;50.200;19.508;2023-05-03T16:06:21;102440.69;;;12.42;100.00
34241;BME280;20503;50.200;19.508;2023-05-03T16:11:28;102426.74;;;12.43;100.00
34241;BME280;20503;50.200;19.508;2023-05-03T16:16:36;102427.70;;;12.58;100.00
34241;BME280;20503;50.200;19.508;2023-05-03T16:21:44;102431.91;;;12.46;100.00
34241;BME280;20503;50.200;19.508;2023-05-03T16:26:53;102428.38;;;12.30;100.00
34241;BME280;20503;50.200;19.508;2023-05-03T16:32:01;102420.59;;;12.41;100.00
34241;BME280;20503;50.200;19.508;2023-05-03T16:37:08;102434.83;;;12.45;100.00
34241;BME280;20503;50.200;19.508;2023-05-03T16:42:16;102434.73;;;12.61;100.00
34241;BME280;20503;50.200;19.508;2023-05-03T16:47:23;102438.54;;;12.52;100.00
34241;BME280;20503;50.200;19.508;2023-05-03T16:56:02;102427.34;;;12.31;100.00
34241;BME280;20503;50.200;19.508;2023-05-03T17:01:10;102426.09;;;12.41;100.00
34241;BME280;20503;50.200;19.508;2023-05-03T17:06:18;102429.41;;;12.29;100.00
34241;BME280;20503;50.200;19.508;2023-05-03T17:11:26;102438.02;;;12.26;100.00
34241;BME280;20503;50.200;19.508;2023-05-03T17:16:33;102434.24;;;12.27;100.00
34241;BME280;20503;50.200;19.508;2023-05-03T17:21:41;102445.45;;;12.09;100.00
34241;BME280;20503;50.200;19.508;2023-05-03T17:26:48;102445.64;;;12.08;100.00
34241;BME280;20503;50.200;19.508;2023-05-03T17:31:57;102453.63;;;12.25;100.00
34241;BME280;20503;50.200;19.508;2023-05-03T17:37:05;102454.13;;;12.29;100.00
34241;BME280;20503;50.200;19.508;2023-05-03T17:42:12;102449.07;;;12.10;100.00
34241;BME280;20503;50.200;19.508;2023-05-03T17:47:21;102454.25;;;12.05;100.00
34241;BME280;20503;50.200;19.508;2023-05-03T17:52:28;102450.99;;;11.93;100.00
34241;BME280;20503;50.200;19.508;2023-05-03T17:57:36;102449.68;;;11.73;100.00
34241;BME280;20503;50.200;19.508;2023-05-03T18:02:44;102454.69;;;11.54;100.00
34241;BME280;20503;50.200;19.508;2023-05-03T18:07:52;102459.33;;;11.45;100.00
34241;BME280;20503;50.200;19.508;2023-05-03T18:13:00;102459.47;;;11.36;100.00
34241;BME280;20503;50.200;19.508;2023-05-03T18:18:07;102458.30;;;11.30;100.00
34241;BME280;20503;50.200;19.508;2023-05-03T18:23:15;102468.04;;;11.17;100.00
34241;BME280;20503;50.200;19.508;2023-05-03T18:28:24;102461.70;;;11.09;100.00
34241;BME280;20503;50.200;19.508;2023-05-03T18:33:33;102465.98;;;11.03;100.00
34241;BME280;20503;50.200;19.508;2023-05-03T18:38:40;102467.70;;;10.96;100.00
34241;BME280;20503;50.200;19.508;2023-05-03T18:43:48;102468.54;;;10.89;100.00
34241;BME280;20503;50.200;19.508;2023-05-03T18:48:55;102454.34;;;10.77;100.00
34241;BME280;20503;50.200;19.508;2023-05-03T18:54:03;102466.95;;;10.62;100.00
34241;BME280;20503;50.200;19.508;2023-05-03T18:59:11;102465.16;;;10.37;100.00
34241;BME280;20503;50.200;19.508;2023-05-03T19:04:19;102474.44;;;10.03;100.00
34241;BME280;20503;50.200;19.508;2023-05-03T19:09:26;102476.95;;;9.71;100.00
34241;BME280;20503;50.200;19.508;2023-05-03T19:14:37;102475.38;;;9.43;100.00
34241;BME280;20503;50.200;19.508;2023-05-03T19:19:43;102465.45;;;9.17;100.00
34241;BME280;20503;50.200;19.508;2023-05-03T19:24:49;102477.56;;;8.97;100.00
34241;BME280;20503;50.200;19.508;2023-05-03T19:29:57;102467.32;;;8.81;100.00
34241;BME280;20503;50.200;19.508;2023-05-03T19:35:06;102476.91;;;8.68;100.00
34241;BME280;20503;50.200;19.508;2023-05-03T19:40:13;102463.20;;;8.60;100.00
34241;BME280;20503;50.200;19.508;2023-05-03T19:45:21;102471.90;;;8.46;100.00
34241;BME280;20503;50.200;19.508;2023-05-03T19:50:29;102475.91;;;8.24;100.00
34241;BME280;20503;50.200;19.508;2023-05-03T19:55:36;102469.91;;;8.11;100.00
34241;BME280;20503;50.200;19.508;2023-05-03T20:00:44;102468.68;;;7.96;100.00
34241;BME280;20503;50.200;19.508;2023-05-03T20:05:52;102473.48;;;7.85;100.00
34241;BME280;20503;50.200;19.508;2023-05-03T20:11:00;102463.76;;;7.73;100.00
34241;BME280;20503;50.200;19.508;2023-05-03T20:16:08;102470.68;;;7.67;100.00
34241;BME280;20503;50.200;19.508;2023-05-03T20:21:17;102474.28;;;7.58;100.00
34241;BME280;20503;50.200;19.508;2023-05-03T20:26:24;102474.01;;;7.52;100.00
34241;BME280;20503;50.200;19.508;2023-05-03T20:31:31;102470.62;;;7.31;100.00
34241;BME280;20503;50.200;19.508;2023-05-03T20:36:40;102470.66;;;7.12;100.00
34241;BME280;20503;50.200;19.508;2023-05-03T20:41:48;102455.47;;;7.00;100.00
34241;BME280;20503;50.200;19.508;2023-05-03T20:46:56;102464.34;;;6.93;100.00
34241;BME280;20503;50.200;19.508;2023-05-03T20:52:03;102468.38;;;6.89;100.00
34241;BME280;20503;50.200;19.508;2023-05-03T20:57:12;102475.95;;;6.76;100.00
34241;BME280;20503;50.200;19.508;2023-05-03T21:02:19;102466.78;;;6.67;100.00
34241;BME280;20503;50.200;19.508;2023-05-03T21:07:27;102476.52;;;6.60;100.00
34241;BME280;20503;50.200;19.508;2023-05-03T21:12:35;102461.15;;;6.40;100.00
34241;BME280;20503;50.200;19.508;2023-05-03T21:17:43;102457.24;;;6.14;100.00
34241;BME280;20503;50.200;19.508;2023-05-03T21:22:51;102472.40;;;6.17;100.00
34241;BME280;20503;50.200;19.508;2023-05-03T21:27:58;102461.18;;;6.01;100.00
34241;BME280;20503;50.200;19.508;2023-05-03T21:33:06;102470.07;;;5.93;100.00
34241;BME280;20503;50.200;19.508;2023-05-03T21:38:15;102468.15;;;5.84;100.00
34241;BME280;20503;50.200;19.508;2023-05-03T21:43:23;102453.17;;;5.69;100.00
34241;BME280;20503;50.200;19.508;2023-05-03T21:48:30;102448.34;;;5.73;100.00
34241;BME280;20503;50.200;19.508;2023-05-03T21:53:38;102467.20;;;5.74;100.00
34241;BME280;20503;50.200;19.508;2023-05-03T21:58:46;102465.71;;;5.61;100.00
34241;BME280;20503;50.200;19.508;2023-05-03T22:03:54;102469.77;;;5.46;100.00
34241;BME280;20503;50.200;19.508;2023-05-03T22:09:01;102467.01;;;5.37;100.00
34241;BME280;20503;50.200;19.508;2023-05-03T22:14:10;102472.27;;;5.58;100.00
34241;BME280;20503;50.200;19.508;2023-05-03T22:19:17;102464.60;;;5.63;100.00
34241;BME280;20503;50.200;19.508;2023-05-03T22:24:31;102459.40;;;6.20;100.00
34241;BME280;20503;50.200;19.508;2023-05-03T22:29:33;102458.91;;;6.93;100.00
34241;BME280;20503;50.200;19.508;2023-05-03T22:34:40;102451.13;;;7.36;100.00
34241;BME280;20503;50.200;19.508;2023-05-03T22:39:48;102452.87;;;7.08;100.00
34241;BME280;20503;50.200;19.508;2023-05-03T22:44:56;102459.20;;;6.80;100.00
34241;BME280;20503;50.200;19.508;2023-05-03T22:50:04;102456.32;;;7.10;100.00
34241;BME280;20503;50.200;19.508;2023-05-03T22:55:12;102446.88;;;7.05;100.00
34241;BME280;20503;50.200;19.508;2023-05-03T23:00:19;102455.59;;;6.42;100.00
34241;BME280;20503;50.200;19.508;2023-05-03T23:05:27;102453.66;;;6.14;100.00
34241;BME280;20503;50.200;19.508;2023-05-03T23:10:34;102448.40;;;5.82;100.00
34241;BME280;20503;50.200;19.508;2023-05-03T23:15:42;102445.42;;;6.53;100.00
34241;BME280;20503;50.200;19.508;2023-05-03T23:20:50;102448.87;;;6.55;100.00
34241;BME280;20503;50.200;19.508;2023-05-03T23:25:57;102434.29;;;5.68;100.00
34241;BME280;20503;50.200;19.508;2023-05-03T23:31:05;102444.45;;;5.36;100.00
34241;BME280;20503;50.200;19.508;2023-05-03T23:36:13;102434.24;;;6.28;100.00
34241;BME280;20503;50.200;19.508;2023-05-03T23:41:21;102431.81;;;6.91;100.00
34241;BME280;20503;50.200;19.508;2023-05-03T23:46:28;102421.64;;;7.12;100.00
34241;BME280;20503;50.200;19.508;2023-05-03T23:51:36;102425.18;;;7.22;100.00
34241;BME280;20503;50.200;19.508;2023-05-03T23:56:44;102426.11;;;7.04;100.00
